馬祖南竿航空站 - ATIS

METAR RCFG 252100Z 34003KT 250V020 8000 FEW012 BKN180 23/22 Q1010 NOSIG RMK 33006KT/R21 MAX WND 7KT/R03 33006KT/NJL A2983(B)=

站台狀態:Online
最後更新:2019-05-26 05:15:01